createdAt,value
2019-01-11T00:01:11.364Z,1.07
2019-01-11T00:03:37.381Z,0.90
2019-01-11T00:06:03.565Z,1.23
2019-01-11T00:08:29.684Z,1.10
2019-01-11T00:10:55.766Z,1.60
2019-01-11T00:13:22.193Z,1.10
2019-01-11T00:15:48.288Z,1.53
2019-01-11T00:18:14.213Z,1.80
2019-01-11T00:20:40.594Z,1.40
2019-01-11T00:23:06.536Z,1.77
2019-01-11T00:25:32.692Z,1.83
2019-01-11T00:27:59.059Z,1.50
2019-01-11T00:30:25.204Z,1.63
2019-01-11T00:32:51.225Z,1.10
2019-01-11T00:35:17.598Z,1.20
2019-01-11T00:37:43.636Z,1.23
2019-01-11T00:40:09.532Z,1.13
2019-01-11T00:42:35.835Z,1.50
2019-01-11T00:45:02.546Z,1.00
2019-01-11T00:47:28.660Z,0.90
2019-01-11T00:49:54.895Z,1.10
2019-01-11T00:52:21.016Z,0.97
2019-01-11T00:54:46.904Z,0.60
2019-01-11T00:57:13.015Z,1.27
2019-01-11T00:59:39.139Z,0.90
2019-01-11T01:02:05.030Z,0.60
2019-01-11T01:04:31.224Z,0.70
2019-01-11T01:06:57.334Z,0.80
2019-01-11T01:09:23.433Z,0.63
2019-01-11T01:11:49.628Z,0.83
2019-01-11T01:14:15.730Z,0.80
2019-01-11T01:16:41.665Z,0.40
2019-01-11T01:19:08.067Z,0.63
2019-01-11T01:21:34.116Z,0.70
2019-01-11T01:24:00.133Z,0.77
2019-01-11T01:26:26.284Z,0.60
2019-01-11T01:28:52.300Z,0.40
2019-01-11T01:31:18.214Z,0.70
2019-01-11T01:33:44.321Z,0.47
2019-01-11T01:36:10.481Z,0.73
2019-01-11T01:38:36.524Z,0.77
2019-01-11T01:41:02.824Z,0.47
2019-01-11T01:43:28.761Z,0.63
2019-01-11T01:45:54.763Z,0.60
2019-01-11T01:48:21.044Z,0.57
2019-01-11T01:50:47.044Z,0.53
2019-01-11T01:53:13.041Z,0.53
2019-01-11T01:55:39.353Z,0.50
2019-01-11T01:58:05.533Z,0.50
2019-01-11T02:00:31.674Z,0.63
2019-01-11T02:02:57.933Z,0.60
2019-01-11T02:05:24.044Z,0.50
2019-01-11T02:07:50.080Z,0.50
2019-01-11T02:10:16.379Z,0.60
2019-01-11T02:12:42.462Z,0.30
2019-01-11T02:15:09.506Z,0.80
2019-01-11T02:17:35.769Z,0.40
2019-01-11T02:20:03.179Z,0.70
2019-01-11T02:22:29.172Z,0.60
2019-01-11T02:24:55.366Z,0.60
2019-01-11T02:27:21.488Z,0.80
2019-01-11T02:29:47.406Z,0.50
2019-01-11T02:32:13.580Z,0.57
2019-01-11T02:34:39.577Z,0.70
2019-01-11T02:37:05.592Z,0.67
2019-01-11T02:39:31.704Z,0.30
2019-01-11T02:41:57.966Z,0.50
2019-01-11T02:44:23.992Z,0.50
2019-01-11T02:46:50.047Z,0.50
2019-01-11T02:49:16.077Z,0.40
2019-01-11T02:51:42.093Z,0.47
2019-01-11T02:54:08.330Z,0.40
2019-01-11T02:56:34.360Z,0.40
2019-01-11T02:59:00.371Z,0.20
2019-01-11T03:01:26.457Z,0.30
2019-01-11T03:03:52.357Z,0.40
2019-01-11T03:06:18.374Z,0.27
2019-01-11T03:08:44.535Z,0.30
2019-01-11T03:11:10.646Z,1.27
2019-01-11T03:13:36.566Z,0.40
2019-01-11T03:16:02.933Z,0.50
2019-01-11T03:18:28.969Z,0.53
2019-01-11T03:20:55.086Z,0.50
2019-01-11T03:23:21.245Z,0.53
2019-01-11T03:25:47.159Z,0.40
2019-01-11T03:28:13.070Z,0.43
2019-01-11T03:30:39.310Z,0.27
2019-01-11T03:33:05.649Z,0.20
2019-01-11T03:35:31.594Z,0.30
2019-01-11T03:37:57.771Z,0.37
2019-01-11T03:40:24.463Z,0.37
2019-01-11T03:42:50.521Z,0.43
2019-01-11T03:45:18.732Z,0.60
2019-01-11T03:47:44.856Z,0.27
2019-01-11T03:50:13.159Z,0.80
2019-01-11T03:52:39.270Z,0.60
2019-01-11T03:55:08.375Z,0.30
2019-01-11T03:57:34.372Z,0.47
2019-01-11T04:00:00.698Z,0.50
2019-01-11T04:02:26.811Z,0.50
2019-01-11T04:04:52.696Z,0.40
2019-01-11T04:07:19.057Z,0.50
2019-01-11T04:09:45.052Z,0.63
2019-01-11T04:12:10.980Z,0.40
2019-01-11T04:14:37.273Z,0.20
2019-01-11T04:17:03.463Z,0.47
2019-01-11T04:19:29.381Z,0.30
2019-01-11T04:21:57.481Z,0.40
2019-01-11T04:24:24.828Z,0.73
2019-01-11T04:26:50.732Z,0.40
2019-01-11T04:29:16.948Z,0.30
2019-01-11T04:31:42.988Z,0.33
2019-01-11T04:34:08.922Z,0.47
2019-01-11T04:36:35.129Z,0.30
2019-01-11T04:39:01.119Z,0.10
2019-01-11T04:41:27.030Z,0.20
2019-01-11T04:43:53.322Z,0.20
2019-01-11T04:46:19.241Z,0.30
2019-01-11T04:48:45.567Z,0.20
2019-01-11T04:51:11.727Z,0.20
2019-01-11T04:53:37.843Z,0.30
2019-01-11T04:56:03.951Z,0.40
2019-01-11T04:58:30.035Z,0.40
2019-01-11T05:00:56.047Z,0.53
2019-01-11T05:03:21.949Z,0.20
2019-01-11T05:05:48.046Z,0.23
2019-01-11T05:08:14.169Z,0.30
2019-01-11T05:10:40.097Z,0.30
2019-01-11T05:13:16.833Z,0.43
2019-01-11T05:15:42.752Z,0.30
2019-01-11T05:18:08.690Z,0.50
2019-01-11T05:20:34.729Z,0.30
2019-01-11T05:23:00.761Z,0.30
2019-01-11T05:25:27.583Z,0.30
2019-01-11T05:27:53.887Z,0.20
2019-01-11T05:30:20.854Z,0.30
2019-01-11T05:32:46.767Z,0.20
2019-01-11T05:35:13.003Z,0.20
2019-01-11T05:37:39.127Z,0.13
2019-01-11T05:40:11.226Z,0.10
2019-01-11T05:42:37.420Z,0.20
2019-01-11T05:45:05.158Z,0.20
2019-01-11T05:47:31.053Z,0.10
2019-01-11T05:49:57.106Z,0.10
2019-01-11T05:52:23.109Z,0.10
2019-01-11T05:54:49.122Z,0.17
2019-01-11T05:57:15.368Z,0.20
2019-01-11T05:59:41.411Z,0.00
2019-01-11T06:02:07.335Z,0.20
2019-01-11T06:04:35.512Z,0.00
2019-01-11T06:07:09.332Z,0.10
2019-01-11T06:09:35.231Z,0.03
2019-01-11T06:12:01.316Z,0.13
2019-01-11T06:14:27.220Z,0.00
2019-01-11T06:16:53.171Z,0.20
2019-01-11T06:19:19.340Z,0.10
2019-01-11T06:21:45.241Z,0.17
2019-01-11T06:24:11.173Z,0.10
2019-01-11T06:26:38.860Z,0.20
2019-01-11T06:29:04.842Z,0.10
2019-01-11T06:31:30.842Z,0.00
2019-01-11T06:33:56.827Z,0.10
2019-01-11T06:36:22.748Z,0.10
2019-01-11T06:38:48.784Z,0.00
2019-01-11T06:41:15.020Z,0.00
2019-01-11T06:43:40.938Z,0.17
2019-01-11T06:46:09.685Z,0.10
2019-01-11T06:48:37.060Z,0.10
2019-01-11T06:51:03.187Z,0.07
2019-01-11T06:53:29.296Z,0.03
2019-01-11T06:55:55.392Z,0.10
2019-01-11T06:58:21.385Z,0.10
2019-01-11T07:00:47.301Z,0.33
2019-01-11T07:03:13.525Z,0.20
2019-01-11T07:05:39.533Z,0.00
2019-01-11T07:08:05.435Z,0.10
2019-01-11T07:10:31.587Z,0.10
2019-01-11T07:12:57.590Z,0.03
2019-01-11T07:15:23.598Z,0.10
2019-01-11T07:17:49.780Z,0.10
2019-01-11T07:20:15.672Z,0.13
2019-01-11T07:22:41.879Z,0.20
2019-01-11T07:25:10.107Z,0.10
2019-01-11T07:27:38.008Z,0.20
2019-01-11T07:30:12.388Z,0.10
2019-01-11T07:32:38.408Z,0.10
2019-01-11T07:35:04.748Z,0.00
2019-01-11T07:37:30.993Z,0.10
2019-01-11T07:39:57.037Z,0.10
2019-01-11T07:42:22.929Z,0.10
2019-01-11T07:44:49.108Z,0.07
2019-01-11T07:47:15.017Z,0.30
2019-01-11T07:49:43.012Z,0.23
2019-01-11T07:52:09.398Z,0.20
2019-01-11T07:54:35.298Z,0.10
2019-01-11T07:57:01.328Z,0.10
2019-01-11T07:59:27.509Z,0.30
2019-01-11T08:01:53.505Z,0.30
2019-01-11T08:04:19.520Z,0.10
2019-01-11T08:06:46.017Z,0.13
2019-01-11T08:09:12.153Z,0.47
2019-01-11T08:11:38.232Z,0.10
2019-01-11T08:14:04.858Z,0.20
2019-01-11T08:16:30.765Z,0.17
2019-01-11T08:18:56.690Z,0.00
2019-01-11T08:21:22.782Z,0.20
2019-01-11T08:23:48.781Z,0.10
2019-01-11T08:26:14.687Z,0.10
2019-01-11T08:28:40.819Z,0.10
2019-01-11T08:31:06.912Z,0.30
2019-01-11T08:33:33.227Z,0.50
2019-01-11T08:35:59.826Z,0.27
2019-01-11T08:38:25.843Z,0.40
2019-01-11T08:40:51.750Z,0.50
2019-01-11T08:43:17.850Z,0.30
2019-01-11T08:45:43.888Z,0.20
2019-01-11T08:48:10.004Z,0.20
2019-01-11T08:50:36.058Z,0.10
2019-01-11T08:53:02.189Z,0.20
2019-01-11T08:55:28.408Z,0.20
2019-01-11T08:57:54.508Z,0.30
2019-01-11T09:00:20.627Z,0.40
2019-01-11T09:02:46.646Z,0.10
2019-01-11T09:05:12.937Z,0.40
2019-01-11T09:07:39.139Z,0.10
2019-01-11T09:10:08.864Z,0.20
2019-01-11T09:12:35.039Z,0.20
2019-01-11T09:15:01.066Z,0.20
2019-01-11T09:17:27.068Z,0.30
2019-01-11T09:19:53.263Z,0.20
2019-01-11T09:22:19.256Z,0.40
2019-01-11T09:24:45.301Z,0.30
2019-01-11T09:27:11.677Z,0.30
2019-01-11T09:29:37.743Z,0.30
2019-01-11T09:32:03.868Z,0.30
2019-01-11T09:34:30.157Z,0.27
2019-01-11T09:36:56.225Z,0.30
2019-01-11T09:39:22.220Z,0.20
2019-01-11T09:41:48.448Z,0.30
2019-01-11T09:44:14.490Z,0.37
2019-01-11T09:46:40.534Z,0.20
2019-01-11T09:49:06.683Z,0.30
2019-01-11T09:51:32.563Z,0.20
2019-01-11T09:53:58.619Z,0.20
2019-01-11T09:56:24.704Z,0.20
2019-01-11T09:58:50.600Z,0.10
2019-01-11T10:01:16.732Z,0.10
2019-01-11T10:03:42.791Z,0.20
2019-01-11T10:06:08.896Z,0.27
2019-01-11T10:08:34.811Z,0.30
2019-01-11T10:11:01.202Z,0.20
2019-01-11T10:13:27.090Z,0.10
2019-01-11T10:15:52.990Z,0.30
2019-01-11T10:18:19.260Z,0.30
2019-01-11T10:20:45.145Z,0.10
2019-01-11T10:23:11.180Z,0.23
2019-01-11T10:25:37.393Z,0.30
2019-01-11T10:28:03.502Z,0.20
2019-01-11T10:30:29.408Z,0.20
2019-01-11T10:32:55.775Z,0.17
2019-01-11T10:35:21.892Z,0.20
2019-01-11T10:37:47.796Z,0.60
2019-01-11T10:40:15.910Z,0.40
2019-01-11T10:42:42.232Z,0.30
2019-01-11T10:45:11.559Z,0.50
2019-01-11T10:47:37.649Z,0.50
2019-01-11T10:50:07.389Z,0.93
2019-01-11T10:52:33.392Z,0.77
2019-01-11T10:54:59.549Z,0.33
2019-01-11T10:57:25.563Z,0.27
2019-01-11T10:59:51.564Z,0.20
2019-01-11T11:02:17.754Z,0.20
2019-01-11T11:04:43.674Z,0.40
2019-01-11T11:07:09.609Z,0.27
2019-01-11T11:09:35.712Z,0.30
2019-01-11T11:12:01.870Z,0.10
2019-01-11T11:14:27.978Z,0.40
2019-01-11T11:16:53.972Z,0.20
2019-01-11T11:19:20.718Z,0.10
2019-01-11T11:21:46.717Z,0.10
2019-01-11T11:24:12.905Z,0.10
2019-01-11T11:26:38.906Z,0.13
2019-01-11T11:29:05.046Z,0.13
2019-01-11T11:31:31.266Z,0.20
2019-01-11T11:33:57.273Z,0.10
2019-01-11T11:36:23.201Z,0.27
2019-01-11T11:38:49.379Z,0.10
2019-01-11T11:41:15.308Z,0.10
2019-01-11T11:43:41.318Z,0.03
2019-01-11T11:46:07.588Z,0.23
2019-01-11T11:48:33.489Z,0.23
2019-01-11T11:50:59.442Z,0.20
2019-01-11T11:53:25.724Z,0.30
2019-01-11T11:55:51.704Z,0.17
2019-01-11T11:58:17.750Z,0.40
2019-01-11T12:00:44.111Z,0.20
2019-01-11T12:03:09.993Z,0.20
2019-01-11T12:05:36.040Z,0.40
2019-01-11T12:08:02.414Z,0.23
2019-01-11T12:10:28.339Z,0.70
2019-01-11T12:12:54.220Z,0.20
2019-01-11T12:15:20.537Z,0.60
2019-01-11T12:17:46.519Z,0.30
2019-01-11T12:20:25.431Z,0.33
2019-01-11T12:22:51.684Z,0.80
2019-01-11T12:25:17.571Z,0.20
2019-01-11T12:27:43.780Z,0.20
2019-01-11T12:30:12.589Z,0.23
2019-01-11T12:32:38.512Z,0.20
2019-01-11T12:35:05.129Z,0.20
2019-01-11T12:37:31.033Z,0.20
2019-01-11T12:39:57.058Z,0.10
2019-01-11T12:42:23.246Z,0.27
2019-01-11T12:44:49.276Z,0.20
2019-01-11T12:47:15.419Z,0.10
2019-01-11T12:49:41.503Z,0.20
2019-01-11T12:52:07.504Z,0.30
2019-01-11T12:54:33.426Z,0.30
2019-01-11T12:56:59.492Z,0.20
2019-01-11T12:59:25.428Z,0.23
2019-01-11T13:01:51.447Z,0.10
2019-01-11T13:04:17.804Z,0.20
2019-01-11T13:06:43.728Z,0.20
2019-01-11T13:09:09.766Z,0.20
2019-01-11T13:11:35.955Z,0.20
2019-01-11T13:14:02.075Z,0.20
2019-01-11T13:16:27.973Z,0.30
2019-01-11T13:18:54.149Z,0.30
2019-01-11T13:21:20.028Z,0.40
2019-01-11T13:23:46.170Z,0.30
2019-01-11T13:26:12.519Z,0.30
2019-01-11T13:28:38.476Z,0.30
2019-01-11T13:31:04.457Z,0.53
2019-01-11T13:33:30.632Z,0.40
2019-01-11T13:35:56.649Z,0.20
2019-01-11T13:38:22.667Z,0.20
2019-01-11T13:40:48.847Z,0.47
2019-01-11T13:43:14.934Z,0.17
2019-01-11T13:45:41.058Z,0.20
2019-01-11T13:48:07.588Z,0.20
2019-01-11T13:50:35.486Z,0.17
2019-01-11T13:53:01.583Z,1.13
2019-01-11T13:55:27.867Z,0.53
2019-01-11T13:57:53.847Z,0.20
2019-01-11T14:00:19.889Z,0.10
2019-01-11T14:02:46.139Z,0.20
2019-01-11T14:05:12.382Z,0.17
2019-01-11T14:07:38.375Z,0.27
2019-01-11T14:10:05.225Z,0.40
2019-01-11T14:12:31.143Z,0.30
2019-01-11T14:14:57.038Z,0.20
2019-01-11T14:17:23.229Z,0.30
2019-01-11T14:19:49.129Z,0.20
2019-01-11T14:22:15.143Z,0.20
2019-01-11T14:24:41.289Z,0.37
2019-01-11T14:27:07.232Z,0.20
2019-01-11T14:29:33.242Z,0.30
2019-01-11T14:31:59.299Z,0.20
2019-01-11T14:34:25.413Z,0.30
2019-01-11T14:36:51.405Z,0.27
2019-01-11T14:39:17.633Z,0.20
2019-01-11T14:41:44.061Z,0.30
2019-01-11T14:44:10.384Z,0.37
2019-01-11T14:46:36.562Z,0.30
2019-01-11T14:49:02.535Z,0.33
2019-01-11T14:51:28.561Z,0.60
2019-01-11T14:53:54.765Z,0.10
2019-01-11T14:56:20.888Z,0.30
2019-01-11T14:58:46.875Z,0.40
2019-01-11T15:01:13.238Z,0.30
2019-01-11T15:03:39.143Z,0.30
2019-01-11T15:06:05.266Z,0.63
2019-01-11T15:08:31.470Z,0.20
2019-01-11T15:10:57.474Z,0.43
2019-01-11T15:13:23.481Z,0.30
2019-01-11T15:15:49.708Z,0.20
2019-01-11T15:18:15.727Z,0.20
2019-01-11T15:20:41.736Z,0.30
2019-01-11T15:23:13.343Z,0.23
2019-01-11T15:25:35.656Z,0.30
2019-01-11T15:28:01.554Z,0.40
2019-01-11T15:30:27.656Z,0.20
2019-01-11T15:32:53.575Z,0.20
2019-01-11T15:35:19.597Z,0.33
2019-01-11T15:37:45.805Z,0.30
2019-01-11T15:40:20.529Z,0.10
2019-01-11T15:42:46.707Z,0.30
2019-01-11T15:45:12.850Z,0.20
2019-01-11T15:47:39.264Z,0.20
2019-01-11T15:50:12.035Z,0.40
2019-01-11T15:52:37.958Z,0.40
2019-01-11T15:55:07.181Z,0.30
2019-01-11T15:57:42.149Z,0.40
2019-01-11T16:00:19.089Z,0.20
2019-01-11T16:02:45.141Z,0.53
2019-01-11T16:05:11.081Z,0.23
2019-01-11T16:07:37.198Z,0.30
2019-01-11T16:10:07.011Z,0.20
2019-01-11T16:12:32.916Z,0.20
2019-01-11T16:15:19.471Z,0.30
2019-01-11T16:17:45.363Z,0.27
2019-01-11T16:20:11.577Z,0.90
2019-01-11T16:22:39.714Z,0.20
2019-01-11T16:25:08.092Z,0.10
2019-01-11T16:27:34.194Z,0.40
2019-01-11T16:30:00.506Z,0.23
2019-01-11T16:32:26.344Z,0.20
2019-01-11T16:34:52.357Z,0.30
2019-01-11T16:37:18.695Z,0.20
2019-01-11T16:39:44.741Z,0.20
2019-01-11T16:42:10.635Z,0.20
2019-01-11T16:44:36.651Z,0.40
2019-01-11T16:47:02.685Z,0.30
2019-01-11T16:49:28.692Z,0.30
2019-01-11T16:51:54.723Z,0.13
2019-01-11T16:54:20.876Z,0.20
2019-01-11T16:56:46.781Z,0.10
2019-01-11T16:59:13.032Z,0.10
2019-01-11T17:01:39.167Z,0.10
2019-01-11T17:04:05.371Z,0.10
2019-01-11T17:06:32.031Z,0.20
2019-01-11T17:08:58.056Z,0.20
2019-01-11T17:11:24.173Z,0.20
2019-01-11T17:13:50.331Z,0.20
2019-01-11T17:16:16.599Z,0.10
2019-01-11T17:18:42.529Z,0.20
2019-01-11T17:21:08.925Z,0.10
2019-01-11T17:23:34.925Z,0.40
2019-01-11T17:26:00.834Z,0.20
2019-01-11T17:28:26.861Z,0.10
2019-01-11T17:30:52.814Z,0.13
2019-01-11T17:33:18.897Z,0.33
2019-01-11T17:35:44.969Z,0.20
2019-01-11T17:38:11.023Z,0.40
2019-01-11T17:40:36.896Z,0.20
2019-01-11T17:43:03.116Z,0.10
2019-01-11T17:45:29.160Z,0.13
2019-01-11T17:47:55.054Z,0.30
2019-01-11T17:50:21.184Z,0.13
2019-01-11T17:52:47.302Z,0.20
2019-01-11T17:55:13.314Z,0.47
2019-01-11T17:57:39.530Z,0.57
2019-01-11T18:00:11.914Z,0.37
2019-01-11T18:02:37.900Z,0.30
2019-01-11T18:05:06.411Z,0.30
2019-01-11T18:07:32.426Z,0.40
2019-01-11T18:09:58.519Z,0.40
2019-01-11T18:12:24.592Z,0.40
2019-01-11T18:14:50.520Z,0.47
2019-01-11T18:17:16.415Z,0.50
2019-01-11T18:19:42.536Z,0.30
2019-01-11T18:22:08.528Z,0.50
2019-01-11T18:24:34.529Z,0.43
2019-01-11T18:27:00.637Z,0.40
2019-01-11T18:29:26.662Z,0.50
2019-01-11T18:31:52.645Z,0.50
2019-01-11T18:34:18.925Z,0.40
2019-01-11T18:36:44.982Z,0.37
2019-01-11T18:39:10.879Z,0.40
2019-01-11T18:41:37.741Z,0.57
2019-01-11T18:44:03.844Z,0.50
2019-01-11T18:46:29.883Z,0.50
2019-01-11T18:48:55.945Z,0.47
2019-01-11T18:51:21.887Z,0.67
2019-01-11T18:53:47.993Z,0.40
2019-01-11T18:56:14.178Z,0.43
2019-01-11T18:58:40.070Z,0.40
2019-01-11T19:01:06.143Z,0.60
2019-01-11T19:03:32.339Z,0.40
2019-01-11T19:05:58.268Z,0.30
2019-01-11T19:08:24.290Z,0.30
2019-01-11T19:10:50.453Z,0.63
2019-01-11T19:13:16.360Z,0.30
2019-01-11T19:15:42.287Z,0.60
2019-01-11T19:18:08.501Z,0.37
2019-01-11T19:20:34.554Z,0.40
2019-01-11T19:23:00.615Z,0.53
2019-01-11T19:25:27.026Z,0.43
2019-01-11T19:27:52.908Z,0.50
2019-01-11T19:30:23.823Z,0.50
2019-01-11T19:32:50.153Z,0.50
2019-01-11T19:35:16.233Z,0.50
2019-01-11T19:37:42.260Z,0.33
2019-01-11T19:40:10.960Z,0.50
2019-01-11T19:42:37.100Z,0.60
2019-01-11T19:45:06.597Z,0.47
2019-01-11T19:47:32.897Z,0.50
2019-01-11T19:49:58.902Z,0.80
2019-01-11T19:52:24.921Z,0.40
2019-01-11T19:54:51.205Z,0.93
2019-01-11T19:57:17.115Z,0.50
2019-01-11T19:59:43.141Z,0.63
2019-01-11T20:02:09.417Z,0.30
2019-01-11T20:04:35.328Z,0.50
2019-01-11T20:07:01.497Z,0.70
2019-01-11T20:09:27.761Z,0.60
2019-01-11T20:11:53.784Z,0.97
2019-01-11T20:14:19.843Z,0.40
2019-01-11T20:16:46.042Z,0.40
2019-01-11T20:19:12.405Z,0.37
2019-01-11T20:21:38.503Z,0.50
2019-01-11T20:24:04.737Z,0.50
2019-01-11T20:26:30.712Z,0.30
2019-01-11T20:28:56.843Z,0.50
2019-01-11T20:31:23.142Z,0.30
2019-01-11T20:33:49.251Z,0.40
2019-01-11T20:36:15.285Z,0.30
2019-01-11T20:38:41.447Z,0.53
2019-01-11T20:41:07.362Z,0.30
2019-01-11T20:43:34.392Z,0.50
2019-01-11T20:46:03.384Z,0.40
2019-01-11T20:48:28.576Z,0.53
2019-01-11T20:50:54.488Z,0.30
2019-01-11T20:53:20.650Z,0.50
2019-01-11T20:55:46.578Z,0.30
2019-01-11T20:58:12.664Z,0.77
2019-01-11T21:00:39.134Z,0.50
2019-01-11T21:03:05.359Z,0.60
2019-01-11T21:05:31.551Z,0.40
2019-01-11T21:07:57.968Z,0.50
2019-01-11T21:10:24.167Z,0.60
2019-01-11T21:12:50.169Z,0.50
2019-01-11T21:15:21.214Z,0.40
2019-01-11T21:17:47.385Z,0.50
2019-01-11T21:20:15.291Z,0.73
2019-01-11T21:22:41.861Z,0.40
2019-01-11T21:25:10.244Z,0.60
2019-01-11T21:27:36.268Z,0.40
2019-01-11T21:30:05.929Z,0.30
2019-01-11T21:32:31.836Z,0.67
2019-01-11T21:34:57.785Z,0.50
2019-01-11T21:37:23.750Z,0.83
2019-01-11T21:39:49.733Z,0.50
2019-01-11T21:42:19.225Z,0.30
2019-01-11T21:44:43.718Z,0.60
2019-01-11T21:47:09.738Z,0.40
2019-01-11T21:49:35.644Z,0.53
2019-01-11T21:52:01.759Z,0.53
2019-01-11T21:54:27.640Z,0.50
2019-01-11T21:56:53.693Z,0.20
2019-01-11T21:59:19.893Z,0.27
2019-01-11T22:01:45.782Z,0.43
2019-01-11T22:04:11.804Z,0.50
2019-01-11T22:06:37.876Z,0.40
2019-01-11T22:09:06.343Z,0.40
2019-01-11T22:11:32.371Z,0.43
2019-01-11T22:13:58.529Z,0.40
2019-01-11T22:16:24.439Z,0.60
2019-01-11T22:18:50.350Z,0.50
2019-01-11T22:21:16.529Z,0.83
2019-01-11T22:23:42.431Z,0.60
2019-01-11T22:26:08.566Z,0.40
2019-01-11T22:28:34.855Z,0.50
2019-01-11T22:31:00.852Z,0.50
2019-01-11T22:33:26.860Z,0.10
2019-01-11T22:35:53.059Z,0.30
2019-01-11T22:38:18.998Z,0.60
2019-01-11T22:40:44.980Z,0.30
2019-01-11T22:43:11.153Z,0.50
2019-01-11T22:45:37.052Z,0.43
2019-01-11T22:48:03.145Z,0.30
2019-01-11T22:50:29.277Z,0.50
2019-01-11T22:52:55.179Z,0.40
2019-01-11T22:55:21.104Z,0.50
2019-01-11T22:57:47.228Z,0.53
2019-01-11T23:00:43.833Z,0.50
2019-01-11T23:03:16.827Z,0.30
2019-01-11T23:05:43.054Z,0.30
2019-01-11T23:08:11.280Z,0.60
2019-01-11T23:10:44.092Z,0.43
2019-01-11T23:13:10.108Z,0.30
2019-01-11T23:15:36.169Z,0.30
2019-01-11T23:18:02.583Z,0.40
2019-01-11T23:20:28.560Z,0.50
2019-01-11T23:22:54.588Z,0.30
2019-01-11T23:25:20.694Z,0.40
2019-01-11T23:27:46.632Z,0.37
2019-01-11T23:30:15.054Z,0.20
2019-01-11T23:32:41.458Z,0.40
2019-01-11T23:35:07.474Z,0.50
2019-01-11T23:37:33.465Z,0.70
2019-01-11T23:39:59.633Z,0.20
2019-01-11T23:42:25.650Z,0.23
2019-01-11T23:44:51.582Z,0.40
2019-01-11T23:47:17.768Z,0.30
2019-01-11T23:49:43.704Z,0.23
2019-01-11T23:52:09.611Z,0.40
2019-01-11T23:54:35.772Z,0.13
2019-01-11T23:57:01.897Z,0.50
2019-01-11T23:59:27.901Z,0.50
